Terminal Aerodrome Forecast
Issued by NWS

Home | Current Version | Previous Version | Text Only | Print | Product List | Glossary On
Versions: 1 2 3 4 5 6 7 8 9 10 11 12 13 14 15 16 17 18 19 20 21 22 23 24
000
FTUS41 KRNK 252322
TAFLWB
TAF
KLWB 252322Z 2600/2624 29010G18KT P6SM BKN045
     FM260300 28010KT P6SM BKN035
     FM261300 28009KT P6SM FEW250
     FM262200 27005KT P6SM SCT200=

USA.gov is the U.S. government's official web portal to all federal, state and local government web resources and services.